Time,TemperatureF,DewpointF,PressureIn,WindDirection,WindDirectionDegrees,WindSpeedMPH,WindSpeedGustMPH,Humidity,HourlyPrecipIn,Conditions,Clouds,dailyrainin,SoftwareType,DateUTC
2013-01-10 00:07:00,7.2,0.4,30.08,South,180,2.2,-999.0,73,-99.99,,,0.00,Acu-Link.com,2013-01-10 07:07:00,
2013-01-10 00:23:00,7.0,1.1,30.07,South,180,3.2,-999.0,76,-99.99,,,0.00,Acu-Link.com,2013-01-10 07:23:00,
2013-01-10 00:38:00,7.3,1.6,30.05,South,180,0.0,-999.0,77,-99.99,,,0.00,Acu-Link.com,2013-01-10 07:38:00,
2013-01-10 00:53:00,7.5,1.8,30.05,South,180,1.7,-999.0,77,-99.99,,,0.00,Acu-Link.com,2013-01-10 07:53:00,
2013-01-10 01:09:00,6.8,0.9,30.04,South,180,0.0,-999.0,76,-99.99,,,0.00,Acu-Link.com,2013-01-10 08:09:00,
2013-01-10 01:24:00,6.3,0.4,30.04,South,180,0.0,-999.0,76,-99.99,,,0.00,Acu-Link.com,2013-01-10 08:24:00,
2013-01-10 01:39:00,7.5,2.1,30.02,South,180,2.2,-999.0,78,-99.99,,,0.00,Acu-Link.com,2013-01-10 08:39:00,
2013-01-10 01:55:00,7.9,1.9,30.01,South,180,0.0,-999.0,76,-99.99,,,0.00,Acu-Link.com,2013-01-10 08:55:00,
2013-01-10 02:10:00,7.0,0.8,30.01,South,180,1.7,-999.0,75,-99.99,,,0.00,Acu-Link.com,2013-01-10 09:10:00,
2013-01-10 02:25:00,6.6,0.7,30.01,South,180,0.0,-999.0,76,-99.99,,,0.00,Acu-Link.com,2013-01-10 09:25:00,
2013-01-10 02:40:00,5.4,-0.5,30.01,South,180,0.0,-999.0,76,-99.99,,,0.00,Acu-Link.com,2013-01-10 09:40:00,
2013-01-10 02:56:00,5.0,-0.9,30.00,South,180,1.7,-999.0,76,-99.99,,,0.00,Acu-Link.com,2013-01-10 09:56:00,
2013-01-10 03:11:00,5.4,0.1,30.00,South,180,2.2,-999.0,78,-99.99,,,0.00,Acu-Link.com,2013-01-10 10:11:00,
2013-01-10 03:26:00,6.3,0.9,29.98,South,180,2.7,-999.0,78,-99.99,,,0.00,Acu-Link.com,2013-01-10 10:26:00,
2013-01-10 03:41:00,6.4,0.8,29.98,South,180,2.7,-999.0,77,-99.99,,,0.00,Acu-Link.com,2013-01-10 10:41:00,
2013-01-10 03:57:00,6.6,1.2,29.97,South,180,2.7,-999.0,78,-99.99,,,0.00,Acu-Link.com,2013-01-10 10:57:00,
2013-01-10 04:12:00,6.6,1.0,29.95,South,180,1.1,-999.0,77,-99.99,,,0.00,Acu-Link.com,2013-01-10 11:12:00,
2013-01-10 04:27:00,5.7,-0.2,29.94,South,180,0.0,-999.0,76,-99.99,,,0.00,Acu-Link.com,2013-01-10 11:27:00,
2013-01-10 04:43:00,6.6,1.2,29.95,South,180,1.7,-999.0,78,-99.99,,,0.00,Acu-Link.com,2013-01-10 11:43:00,
2013-01-10 04:58:00,6.1,0.7,29.96,South,180,1.7,-999.0,78,-99.99,,,0.00,Acu-Link.com,2013-01-10 11:58:00,
2013-01-10 05:13:00,6.3,0.7,29.95,South,180,1.7,-999.0,77,-99.99,,,0.00,Acu-Link.com,2013-01-10 12:13:00,
2013-01-10 05:29:00,5.0,-0.9,29.95,South,180,1.7,-999.0,76,-99.99,,,0.00,Acu-Link.com,2013-01-10 12:29:00,
2013-01-10 05:44:00,4.8,-1.1,29.96,South,180,2.2,-999.0,76,-99.99,,,0.00,Acu-Link.com,2013-01-10 12:44:00,
2013-01-10 05:59:00,4.8,-1.1,29.95,South,180,2.2,-999.0,76,-99.99,,,0.00,Acu-Link.com,2013-01-10 12:59:00,
2013-01-10 06:15:00,4.8,-1.1,29.93,South,180,2.7,-999.0,76,-99.99,,,0.00,Acu-Link.com,2013-01-10 13:15:00,
2013-01-10 06:30:00,7.0,1.6,29.93,South,180,2.2,-999.0,78,-99.99,,,0.00,Acu-Link.com,2013-01-10 13:30:00,
2013-01-10 06:45:00,4.6,-1.5,29.92,South,180,1.7,-999.0,75,-99.99,,,0.00,Acu-Link.com,2013-01-10 13:45:00,
2013-01-10 07:01:00,3.7,-2.4,29.93,South,180,0.0,-999.0,75,-99.99,,,0.00,Acu-Link.com,2013-01-10 14:01:00,
2013-01-10 07:16:00,3.9,-1.9,29.93,South,180,2.2,-999.0,76,-99.99,,,0.00,Acu-Link.com,2013-01-10 14:16:00,
2013-01-10 07:31:00,5.2,-0.7,29.91,South,180,1.7,-999.0,76,-99.99,,,0.00,Acu-Link.com,2013-01-10 14:31:00,
2013-01-10 07:46:00,5.7,-0.2,29.92,South,180,3.2,-999.0,76,-99.99,,,0.00,Acu-Link.com,2013-01-10 14:46:00,
2013-01-10 08:02:00,8.4,3.0,29.92,South,180,0.0,-999.0,78,-99.99,,,0.00,Acu-Link.com,2013-01-10 15:02:00,
2013-01-10 08:17:00,10.0,4.3,29.92,South,180,0.0,-999.0,77,-99.99,,,0.00,Acu-Link.com,2013-01-10 15:17:00,
2013-01-10 08:32:00,11.3,5.2,29.93,South,180,0.0,-999.0,76,-99.99,,,0.00,Acu-Link.com,2013-01-10 15:32:00,
2013-01-10 08:48:00,13.5,7.4,29.92,South,180,0.0,-999.0,76,-99.99,,,0.00,Acu-Link.com,2013-01-10 15:48:00,
2013-01-10 09:03:00,16.5,9.7,29.91,South,180,0.0,-999.0,74,-99.99,,,0.00,Acu-Link.com,2013-01-10 16:03:00,
2013-01-10 09:18:00,14.0,5.7,29.91,South,180,1.7,-999.0,69,-99.99,,,0.00,Acu-Link.com,2013-01-10 16:18:00,
2013-01-10 09:34:00,18.1,9.3,29.89,South,180,2.7,-999.0,68,-99.99,,,0.00,Acu-Link.com,2013-01-10 16:34:00,
2013-01-10 09:49:00,18.3,8.5,29.89,South,180,2.7,-999.0,65,-99.99,,,0.00,Acu-Link.com,2013-01-10 16:49:00,
2013-01-10 10:04:00,20.1,9.6,29.91,South,180,2.2,-999.0,63,-99.99,,,0.00,Acu-Link.com,2013-01-10 17:04:00,
2013-01-10 10:20:00,21.6,10.3,29.89,South,180,3.2,-999.0,61,-99.99,,,0.00,Acu-Link.com,2013-01-10 17:20:00,
2013-01-10 10:35:00,23.9,10.5,29.89,West,270,2.2,-999.0,56,-99.99,,,0.00,Acu-Link.com,2013-01-10 17:35:00,
2013-01-10 10:50:00,24.4,10.6,29.88,West,270,3.7,-999.0,55,-99.99,,,0.00,Acu-Link.com,2013-01-10 17:50:00,
2013-01-10 11:05:00,26.4,12.0,29.88,West,270,2.7,-999.0,54,-99.99,,,0.00,Acu-Link.com,2013-01-10 18:05:00,
2013-01-10 11:20:00,30.7,13.8,29.88,West,270,3.7,-999.0,49,-99.99,,,0.00,Acu-Link.com,2013-01-10 18:20:00,
2013-01-10 11:36:00,27.5,11.8,29.86,West,270,0.0,-999.0,51,-99.99,,,0.00,Acu-Link.com,2013-01-10 18:36:00,
2013-01-10 11:51:00,32.2,12.8,29.83,West,270,1.1,-999.0,44,-99.99,,,0.00,Acu-Link.com,2013-01-10 18:51:00,
2013-01-10 12:06:00,31.5,12.1,29.83,West,270,1.7,-999.0,44,-99.99,,,0.00,Acu-Link.com,2013-01-10 19:06:00,
2013-01-10 12:22:00,32.7,13.2,29.82,West,270,2.2,-999.0,44,-99.99,,,0.00,Acu-Link.com,2013-01-10 19:22:00,
2013-01-10 12:37:00,34.3,14.2,29.81,West,270,1.7,-999.0,43,-99.99,,,0.00,Acu-Link.com,2013-01-10 19:37:00,
2013-01-10 12:52:00,36.9,14.9,29.80,West,270,1.7,-999.0,40,-99.99,,,0.00,Acu-Link.com,2013-01-10 19:52:00,
2013-01-10 13:07:00,38.3,14.9,29.78,West,270,2.2,-999.0,38,-99.99,,,0.00,Acu-Link.com,2013-01-10 20:07:00,
2013-01-10 13:22:00,40.3,14.9,29.77,West,270,0.0,-999.0,35,-99.99,,,0.00,Acu-Link.com,2013-01-10 20:22:00,
2013-01-10 13:38:00,43.2,17.4,29.76,West,270,0.0,-999.0,35,-99.99,,,0.00,Acu-Link.com,2013-01-10 20:38:00,
2013-01-10 13:53:00,43.2,17.4,29.76,West,270,2.7,-999.0,35,-99.99,,,0.00,Acu-Link.com,2013-01-10 20:53:00,
2013-01-10 14:08:00,42.3,15.3,29.75,West,270,2.2,-999.0,33,-99.99,,,0.00,Acu-Link.com,2013-01-10 21:08:00,
2013-01-10 14:24:00,44.8,16.8,29.74,West,270,2.7,-999.0,32,-99.99,,,0.00,Acu-Link.com,2013-01-10 21:24:00,
2013-01-10 14:54:00,43.3,16.2,29.72,West,270,2.2,-999.0,33,-99.99,,,0.00,Acu-Link.com,2013-01-10 21:54:00,
2013-01-10 15:10:00,40.6,15.1,29.72,West,270,4.7,-999.0,35,-99.99,,,0.00,Acu-Link.com,2013-01-10 22:10:00,
2013-01-10 15:25:00,39.7,14.3,29.72,WSW,247,2.2,-999.0,35,-99.99,,,0.00,Acu-Link.com,2013-01-10 22:25:00,
2013-01-10 15:40:00,40.6,13.8,29.71,WSW,247,0.0,-999.0,33,-99.99,,,0.00,Acu-Link.com,2013-01-10 22:40:00,
2013-01-10 15:56:00,39.0,13.0,29.72,WSW,247,0.0,-999.0,34,-99.99,,,0.00,Acu-Link.com,2013-01-10 22:56:00,
2013-01-10 16:11:00,37.0,13.8,29.72,WSW,247,2.2,-999.0,38,-99.99,,,0.00,Acu-Link.com,2013-01-10 23:11:00,
2013-01-10 16:26:00,35.6,13.7,29.72,WSW,247,2.7,-999.0,40,-99.99,,,0.00,Acu-Link.com,2013-01-10 23:26:00,
2013-01-10 16:42:00,33.4,13.3,29.72,WSW,247,0.0,-999.0,43,-99.99,,,0.00,Acu-Link.com,2013-01-10 23:42:00,
2013-01-10 16:57:00,32.5,15.0,29.73,WSW,247,0.0,-999.0,48,-99.99,,,0.00,Acu-Link.com,2013-01-10 23:57:00,
2013-01-10 17:12:00,29.8,13.9,29.71,WSW,247,2.2,-999.0,51,-99.99,,,0.00,Acu-Link.com,2013-01-11 00:12:00,
2013-01-10 17:27:00,27.3,13.7,29.71,WSW,247,1.7,-999.0,56,-99.99,,,0.00,Acu-Link.com,2013-01-11 00:27:00,
2013-01-10 17:43:00,27.0,13.4,29.71,WSW,247,3.2,-999.0,56,-99.99,,,0.00,Acu-Link.com,2013-01-11 00:43:00,
2013-01-10 17:58:00,26.1,13.4,29.70,WSW,247,2.2,-999.0,58,-99.99,,,0.00,Acu-Link.com,2013-01-11 00:58:00,
2013-01-10 18:14:00,27.3,14.1,29.70,WSW,247,1.1,-999.0,57,-99.99,,,0.00,Acu-Link.com,2013-01-11 01:14:00,
2013-01-10 18:29:00,27.1,14.3,29.70,ESE,112,4.2,-999.0,58,-99.99,,,0.00,Acu-Link.com,2013-01-11 01:29:00,
2013-01-10 18:45:00,28.4,14.3,29.68,ENE,67,1.1,-999.0,55,-99.99,,,0.00,Acu-Link.com,2013-01-11 01:45:00,
2013-01-10 19:00:00,28.0,14.8,29.68,ENE,67,2.7,-999.0,57,-99.99,,,0.00,Acu-Link.com,2013-01-11 02:00:00,
2013-01-10 19:15:00,28.2,14.5,29.70,ENE,67,1.7,-999.0,56,-99.99,,,0.00,Acu-Link.com,2013-01-11 02:15:00,
2013-01-10 19:30:00,28.4,15.1,29.69,East,90,4.7,-999.0,57,-99.99,,,0.00,Acu-Link.com,2013-01-11 02:30:00,
2013-01-10 19:46:00,28.0,15.2,29.70,ENE,67,0.0,-999.0,58,-99.99,,,0.00,Acu-Link.com,2013-01-11 02:46:00,
2013-01-10 20:01:00,27.7,15.7,29.66,ENE,67,0.0,-999.0,60,-99.99,,,0.00,Acu-Link.com,2013-01-11 03:01:00,
2013-01-10 20:16:00,27.5,15.1,29.66,ENE,67,2.2,-999.0,59,-99.99,,,0.00,Acu-Link.com,2013-01-11 03:16:00,
2013-01-10 20:32:00,27.0,15.0,29.67,East,90,2.2,-999.0,60,-99.99,,,0.00,Acu-Link.com,2013-01-11 03:32:00,
2013-01-10 20:47:00,27.1,15.1,29.67,East,90,3.2,-999.0,60,-99.99,,,0.00,Acu-Link.com,2013-01-11 03:47:00,
2013-01-10 21:02:00,26.8,14.8,29.66,East,90,1.7,-999.0,60,-99.99,,,0.00,Acu-Link.com,2013-01-11 04:02:00,
2013-01-10 21:17:00,28.6,15.3,29.65,East,90,2.7,-999.0,57,-99.99,,,0.00,Acu-Link.com,2013-01-11 04:17:00,
2013-01-10 21:33:00,27.1,14.7,29.65,East,90,2.2,-999.0,59,-99.99,,,0.00,Acu-Link.com,2013-01-11 04:33:00,
2013-01-10 21:48:00,27.7,14.5,29.65,East,90,3.2,-999.0,57,-99.99,,,0.00,Acu-Link.com,2013-01-11 04:48:00,
2013-01-10 22:03:00,28.2,14.9,29.64,East,90,2.2,-999.0,57,-99.99,,,0.00,Acu-Link.com,2013-01-11 05:03:00,
2013-01-10 22:18:00,27.9,15.1,29.65,West,270,3.7,-999.0,58,-99.99,,,0.00,Acu-Link.com,2013-01-11 05:18:00,
2013-01-10 22:34:00,27.3,14.9,29.64,ESE,112,1.7,-999.0,59,-99.99,,,0.00,Acu-Link.com,2013-01-11 05:34:00,
2013-01-10 22:49:00,27.5,14.7,29.63,ESE,112,1.1,-999.0,58,-99.99,,,0.00,Acu-Link.com,2013-01-11 05:49:00,
2013-01-10 23:04:00,27.7,14.5,29.61,ESE,112,2.7,-999.0,57,-99.99,,,0.00,Acu-Link.com,2013-01-11 06:04:00,
2013-01-10 23:20:00,29.7,15.1,29.60,SSW,202,1.7,-999.0,54,-99.99,,,0.00,Acu-Link.com,2013-01-11 06:20:00,
2013-01-10 23:35:00,29.3,15.2,29.61,ENE,67,3.2,-999.0,55,-99.99,,,0.00,Acu-Link.com,2013-01-11 06:35:00,
2013-01-10 23:50:00,30.7,15.6,29.59,South,180,2.2,-999.0,53,-99.99,,,0.00,Acu-Link.com,2013-01-11 06:50:00,